createdAt,value
2022-12-03T00:03:55.083Z,100938.97
2022-12-03T00:08:58.214Z,100940.75
2022-12-03T00:14:01.220Z,100945.06
2022-12-03T00:19:04.656Z,100946.09
2022-12-03T00:24:08.746Z,100947.88
2022-12-03T00:29:11.647Z,100941.69
2022-12-03T00:34:14.518Z,100956.47
2022-12-03T00:39:17.492Z,100949.44
2022-12-03T00:44:20.383Z,100964.13
2022-12-03T00:49:23.089Z,100952.81
2022-12-03T00:54:31.544Z,100961.59
2022-12-03T00:59:34.934Z,100959.91
2022-12-03T01:04:38.526Z,100958.13
2022-12-03T01:09:41.900Z,100951.97
2022-12-03T01:14:44.982Z,100949.34
2022-12-03T01:19:48.791Z,100955.34
2022-12-03T01:24:52.130Z,100959.66
2022-12-03T01:29:55.181Z,100952.91
2022-12-03T01:34:58.013Z,100955.53
2022-12-03T01:40:01.050Z,100955.63
2022-12-03T01:45:05.116Z,100967.03
2022-12-03T01:50:35.033Z,100966.09
2022-12-03T01:55:38.164Z,100969.53
2022-12-03T02:00:41.475Z,100973.09
2022-12-03T02:05:44.507Z,100972.31
2022-12-03T02:10:47.435Z,100963.63
2022-12-03T02:15:50.532Z,100963.56
2022-12-03T02:21:01.760Z,100959.44
2022-12-03T02:26:04.887Z,100952.50
2022-12-03T02:31:08.193Z,100955.88
2022-12-03T02:36:12.435Z,100958.41
2022-12-03T02:41:37.575Z,100959.34
2022-12-03T02:46:41.026Z,100958.50
2022-12-03T02:51:43.967Z,100959.44
2022-12-03T02:56:46.896Z,100964.66
2022-12-03T03:01:50.012Z,100960.28
2022-12-03T03:06:53.155Z,100961.94
2022-12-03T03:11:56.070Z,100960.38
2022-12-03T03:16:59.041Z,100954.19
2022-12-03T03:22:02.491Z,100948.75
2022-12-03T03:27:06.087Z,100952.16
2022-12-03T03:32:09.075Z,100960.75
2022-12-03T03:37:12.209Z,100958.13
2022-12-03T03:42:15.225Z,100963.28
2022-12-03T03:47:19.385Z,100960.59
2022-12-03T03:52:22.826Z,100958.81
2022-12-03T03:57:25.904Z,100959.66
2022-12-03T04:02:28.908Z,100953.66
2022-12-03T04:07:31.941Z,100955.34
2022-12-03T04:12:53.072Z,100960.66
2022-12-03T04:18:14.293Z,100953.00
2022-12-03T04:23:17.276Z,100960.59
2022-12-03T04:28:38.697Z,100963.22
2022-12-03T04:34:10.700Z,100961.44
2022-12-03T04:39:14.092Z,100958.72
2022-12-03T04:44:35.232Z,100961.25
2022-12-03T04:49:42.291Z,100947.22
2022-12-03T04:54:46.017Z,100960.25
2022-12-03T04:59:48.915Z,100957.44
2022-12-03T05:04:52.186Z,100972.19
2022-12-03T05:09:55.299Z,100973.72
2022-12-03T05:14:58.222Z,100972.78
2022-12-03T05:20:19.554Z,100982.41
2022-12-03T05:25:23.105Z,100978.09
2022-12-03T05:30:26.066Z,100982.41
2022-12-03T05:35:29.242Z,100987.66
2022-12-03T05:40:32.202Z,100985.13
2022-12-03T05:45:40.831Z,100979.88
2022-12-03T05:50:45.804Z,100972.03
2022-12-03T05:55:48.779Z,100976.22
2022-12-03T06:00:51.712Z,100990.94
2022-12-03T06:05:54.692Z,100996.00
2022-12-03T06:10:57.606Z,101000.22
2022-12-03T06:16:00.497Z,101014.91
2022-12-03T06:21:03.419Z,101007.78
2022-12-03T06:26:06.262Z,101006.84
2022-12-03T06:31:09.332Z,100980.66
2022-12-03T06:36:12.743Z,100990.97
2022-12-03T06:41:15.563Z,100992.53
2022-12-03T06:46:18.641Z,100994.25
2022-12-03T06:51:21.669Z,100996.78
2022-12-03T06:56:25.162Z,101005.38
2022-12-03T07:01:29.568Z,101002.66
2022-12-03T07:06:32.441Z,101008.47
2022-12-03T07:11:40.516Z,101010.09
2022-12-03T07:16:43.767Z,101009.91
2022-12-03T07:21:46.774Z,101015.81
2022-12-03T07:26:50.218Z,101007.00
2022-12-03T07:31:53.353Z,101003.34
2022-12-03T07:36:56.398Z,101015.25
2022-12-03T07:41:59.431Z,101013.28
2022-12-03T07:47:02.348Z,101004.41
2022-12-03T07:52:07.112Z,101018.28
2022-12-03T07:57:10.023Z,101013.03
2022-12-03T08:02:16.777Z,101022.47
2022-12-03T08:07:24.218Z,101025.75
2022-12-03T08:12:41.970Z,101029.88
2022-12-03T08:17:47.861Z,101034.84
2022-12-03T08:22:53.570Z,101019.09
2022-12-03T08:28:11.101Z,101017.78
2022-12-03T08:33:35.230Z,101013.88
2022-12-03T08:38:38.367Z,101016.31
2022-12-03T08:43:43.868Z,101024.16
2022-12-03T08:48:49.431Z,101022.22
2022-12-03T08:54:01.861Z,101023.25
2022-12-03T08:59:13.907Z,101030.88
2022-12-03T09:04:55.950Z,101031.59
2022-12-03T09:09:59.110Z,101031.00
2022-12-03T09:15:01.834Z,101019.94
2022-12-03T09:20:06.619Z,101020.94
2022-12-03T09:25:09.926Z,101012.88
2022-12-03T09:30:13.655Z,101025.84
2022-12-03T09:35:17.141Z,101007.97
2022-12-03T09:40:20.954Z,101004.94
2022-12-03T09:45:23.924Z,101006.59
2022-12-03T09:50:27.694Z,101007.97
2022-12-03T09:55:31.270Z,100989.47
2022-12-03T10:00:34.283Z,100987.78
2022-12-03T10:05:37.376Z,100986.81
2022-12-03T10:10:41.945Z,100985.47
2022-12-03T10:15:44.902Z,100974.28
2022-12-03T10:20:48.995Z,100965.41
2022-12-03T10:26:02.948Z,100979.16
2022-12-03T10:31:11.800Z,100965.53
2022-12-03T10:36:19.838Z,100960.63
2022-12-03T10:41:28.877Z,100945.78
2022-12-03T10:46:31.805Z,100941.41
2022-12-03T10:51:35.164Z,100940.75
2022-12-03T10:56:38.108Z,100929.50
2022-12-03T11:01:41.549Z,100932.50
2022-12-03T11:06:44.472Z,100917.66
2022-12-03T11:11:47.808Z,100919.78
2022-12-03T11:17:13.569Z,100912.50
2022-12-03T11:22:24.771Z,100911.22
2022-12-03T11:27:27.677Z,100897.69
2022-12-03T11:32:43.884Z,100899.59
2022-12-03T11:37:46.799Z,100895.28
2022-12-03T11:42:49.860Z,100891.56
2022-12-03T11:47:58.801Z,100880.06
2022-12-03T11:53:12.057Z,100878.38
2022-12-03T11:58:29.607Z,100874.44
2022-12-03T12:03:50.970Z,100874.34
2022-12-03T12:09:00.283Z,100873.28
2022-12-03T12:14:09.176Z,100864.97
2022-12-03T12:19:49.712Z,100856.22
2022-12-03T12:25:02.537Z,100841.22
2022-12-03T12:30:18.545Z,100843.84
2022-12-03T12:35:28.111Z,100836.34
2022-12-03T12:40:33.925Z,100835.81
2022-12-03T12:45:41.499Z,100827.66
2022-12-03T12:50:48.497Z,100823.97
2022-12-03T12:56:01.736Z,100827.22
2022-12-03T13:01:11.448Z,100822.66
2022-12-03T13:06:16.334Z,100830.34
2022-12-03T13:11:25.154Z,100824.72
2022-12-03T13:16:32.849Z,100826.72
2022-12-03T13:21:43.139Z,100829.50
2022-12-03T13:26:46.079Z,100823.25
2022-12-03T13:32:02.241Z,100830.81
2022-12-03T13:37:22.323Z,100830.69
2022-12-03T13:42:40.642Z,100835.25
2022-12-03T13:47:55.768Z,100840.75
2022-12-03T13:53:02.521Z,100842.66
2022-12-03T13:58:05.617Z,100842.81
2022-12-03T14:03:08.927Z,100833.44
2022-12-03T14:08:12.025Z,100837.16
2022-12-03T14:13:14.892Z,100849.47
2022-12-03T14:18:32.874Z,100848.88
2022-12-03T14:23:35.758Z,100862.28
2022-12-03T14:28:38.742Z,100857.13
2022-12-03T14:33:41.736Z,100854.00
2022-12-03T14:38:44.795Z,100860.59
2022-12-03T14:43:47.649Z,100865.97
2022-12-03T14:48:50.533Z,100859.38
2022-12-03T14:53:53.543Z,100858.78
2022-12-03T14:58:56.446Z,100857.31
2022-12-03T15:03:59.411Z,100863.66
2022-12-03T15:09:02.708Z,100872.84
2022-12-03T15:14:07.148Z,100869.63
2022-12-03T15:19:10.263Z,100857.63
2022-12-03T15:24:13.267Z,100861.22
2022-12-03T15:29:16.122Z,100861.56
2022-12-03T15:34:22.936Z,100863.47
2022-12-03T15:39:26.789Z,100866.22
2022-12-03T15:44:29.660Z,100884.28
2022-12-03T15:59:38.894Z,100866.56
2022-12-03T16:04:41.825Z,100869.53
2022-12-03T16:09:44.988Z,100874.44
2022-12-03T16:14:47.843Z,100875.91
2022-12-03T16:19:50.857Z,100881.72
2022-12-03T16:24:53.905Z,100885.59
2022-12-03T16:29:57.408Z,100883.44
2022-12-03T16:35:00.499Z,100877.63
2022-12-03T16:40:04.196Z,100874.38
2022-12-03T16:45:08.278Z,100884.28
2022-12-03T16:50:17.975Z,100885.97
2022-12-03T16:55:24.239Z,100887.81
2022-12-03T17:00:27.394Z,100892.06
2022-12-03T17:05:30.299Z,100888.41
2022-12-03T17:10:33.839Z,100898.44
2022-12-03T17:15:36.946Z,100904.16
2022-12-03T17:20:39.839Z,100900.97
2022-12-03T17:25:42.528Z,100897.81
2022-12-03T17:30:45.882Z,100902.38
2022-12-03T17:35:49.091Z,100898.91
2022-12-03T17:40:52.411Z,100895.75
2022-12-03T17:45:55.358Z,100896.88
2022-12-03T17:50:58.307Z,100893.59
2022-12-03T17:56:01.214Z,100894.78
2022-12-03T18:01:05.881Z,100899.47
2022-12-03T18:06:08.824Z,100897.31
2022-12-03T18:11:11.699Z,100897.78
2022-12-03T18:16:15.505Z,100892.16
2022-12-03T18:21:18.513Z,100900.38
2022-12-03T18:26:21.765Z,100893.06
2022-12-03T18:31:24.702Z,100895.09
2022-12-03T18:36:33.725Z,100891.06
2022-12-03T18:41:36.813Z,100892.25
2022-12-03T18:46:56.090Z,100895.16
2022-12-03T18:51:59.739Z,100903.84
2022-12-03T18:57:02.923Z,100904.00
2022-12-03T19:02:07.979Z,100911.19
2022-12-03T19:07:13.304Z,100908.75
2022-12-03T19:12:16.781Z,100898.38
2022-12-03T19:17:19.718Z,100904.56
2022-12-03T19:22:22.888Z,100893.31
2022-12-03T19:27:25.795Z,100899.50
2022-12-03T19:32:28.820Z,100905.66
2022-12-03T19:37:36.353Z,100915.38
2022-12-03T19:42:40.884Z,100912.75
2022-12-03T19:47:43.748Z,100915.44
2022-12-03T19:52:48.911Z,100922.44
2022-12-03T19:57:51.882Z,100932.06
2022-12-03T20:02:54.656Z,100926.94
2022-12-03T20:07:57.683Z,100933.16
2022-12-03T20:13:01.012Z,100920.84
2022-12-03T20:18:04.273Z,100926.09
2022-12-03T20:23:07.102Z,100926.09
2022-12-03T20:28:09.923Z,100928.44
2022-12-03T20:33:13.752Z,100923.72
2022-12-03T20:38:16.625Z,100918.03
2022-12-03T20:43:20.157Z,100923.06
2022-12-03T20:48:23.191Z,100914.31
2022-12-03T20:53:26.018Z,100928.16
2022-12-03T20:58:31.099Z,100932.44
2022-12-03T21:03:34.251Z,100922.66
2022-12-03T21:08:41.575Z,100927.69
2022-12-03T21:13:46.673Z,100922.56
2022-12-03T21:18:49.868Z,100926.22
2022-12-03T21:23:52.918Z,100919.25
2022-12-03T21:28:55.896Z,100917.50
2022-12-03T21:33:59.253Z,100916.28
2022-12-03T21:39:02.221Z,100916.22
2022-12-03T21:44:05.729Z,100922.00
2022-12-03T21:49:08.685Z,100924.47
2022-12-03T21:54:12.138Z,100910.63
2022-12-03T21:59:14.990Z,100914.00
2022-12-03T22:04:17.883Z,100906.25
2022-12-03T22:09:26.300Z,100903.53
2022-12-03T22:14:30.638Z,100906.88
2022-12-03T22:19:33.620Z,100901.59
2022-12-03T22:24:36.713Z,100896.06
2022-12-03T22:29:39.699Z,100891.41
2022-12-03T22:34:42.704Z,100887.41
2022-12-03T22:39:45.733Z,100879.91
2022-12-03T22:44:48.570Z,100887.31
2022-12-03T22:49:51.418Z,100887.88
2022-12-03T22:54:54.313Z,100873.56
2022-12-03T22:59:57.434Z,100880.38
2022-12-03T23:05:00.452Z,100884.50
2022-12-03T23:10:03.528Z,100876.28
2022-12-03T23:15:07.815Z,100867.19
2022-12-03T23:20:11.544Z,100868.50
2022-12-03T23:25:15.524Z,100860.19
2022-12-03T23:30:18.559Z,100857.91
2022-12-03T23:35:21.493Z,100858.25
2022-12-03T23:40:24.528Z,100848.13
2022-12-03T23:45:27.978Z,100849.72
2022-12-03T23:50:31.354Z,100847.19
2022-12-03T23:55:34.244Z,100844.97
